Time;durP1;ratioP1;P1;durP2;ratioP2;P2;SDS_P1;SDS_P2;PMS_P1;PMS_P2;Temp;Humidity;BMP_temperature;BMP_pressure;BME280_temperature;BME280_humidity;BME280_pressure;Samples;Min_cycle;Max_cycle;Signal;HPM_P1;HPM_P2
2022/01/26 00:07:04;;;;;;;11.93;5.80;;;;;;;-145.06;0.00;60892.56;4858846;28;20384;-88
2022/01/26 00:09:43;;;;;;;13.10;6.65;;;;;;;-145.06;0.00;60892.56;4857106;28;20029;-89
2022/01/26 00:12:21;;;;;;;9.97;6.07;;;;;;;-145.06;0.00;60892.56;4855917;28;20033;-90
2022/01/26 00:15:00;;;;;;;13.35;7.15;;;;;;;10.68;0.00;60892.56;4869996;28;20037;-88
2022/01/26 00:17:39;;;;;;;13.50;7.27;;;;;;;-145.06;0.00;60892.56;4858180;28;20041;-90
2022/01/26 00:20:27;;;;;;;11.73;6.57;;;;;;;-145.06;0.00;60892.56;4856547;28;20272;-89
2022/01/26 00:43:25;;;;;;;13.75;6.78;;;;;;;-145.06;0.00;60892.56;4857116;28;20030;-90
2022/01/26 00:46:06;;;;;;;13.63;6.53;;;;;;;-145.06;0.00;60892.56;4850608;28;20025;-89
2022/01/26 00:48:45;;;;;;;17.45;7.78;;;;;;;-145.06;0.00;60892.56;4856521;28;20041;-89
2022/01/26 00:51:24;;;;;;;16.65;8.98;;;;;;;-145.06;0.00;60892.56;4855869;28;20071;-88
2022/01/26 00:54:06;;;;;;;13.52;7.18;;;;;;;-145.06;0.00;60892.56;4854784;28;20033;-89
2022/01/26 00:56:45;;;;;;;14.32;7.65;;;;;;;-145.06;0.00;60892.56;4856140;28;20025;-90
2022/01/26 00:59:24;;;;;;;14.93;7.97;;;;;;;-145.06;0.00;60892.56;4848863;28;20372;-89
2022/01/26 01:02:03;;;;;;;15.20;7.30;;;;;;;-145.06;0.00;60892.56;4858936;28;20355;-89
2022/01/26 01:04:42;;;;;;;19.60;8.10;;;;;;;-145.06;0.00;60892.56;4860324;28;20021;-87
2022/01/26 01:07:23;;;;;;;18.07;8.77;;;;;;;-145.06;0.00;60892.56;4857094;28;20264;-89
2022/01/26 01:10:03;;;;;;;16.50;8.30;;;;;;;-145.06;0.00;60892.56;4863432;28;20502;-89
2022/01/26 01:12:44;;;;;;;14.93;8.77;;;;;;;-145.06;0.00;60892.56;4856600;28;20029;-89
2022/01/26 01:15:25;;;;;;;20.23;9.05;;;;;;;-145.06;0.00;60892.56;4855791;28;20364;-89
2022/01/26 01:18:11;;;;;;;16.73;8.57;;;;;;;-145.06;0.00;60892.56;4855540;28;20045;-90
2022/01/26 01:21:19;;;;;;;14.68;8.05;;;;;;;-145.06;0.00;60892.56;4856187;28;20112;-89
2022/01/26 01:29:27;;;;;;;16.70;8.20;;;;;;;-145.06;0.00;60892.56;4856365;28;20136;-90
2022/01/26 01:32:13;;;;;;;15.65;8.27;;;;;;;-145.06;0.00;60892.56;4855753;28;20119;-89
2022/01/26 01:34:52;;;;;;;16.15;7.53;;;;;;;21.08;0.00;60892.56;4863206;28;20117;-89
2022/01/26 01:37:31;;;;;;;15.97;7.87;;;;;;;-145.06;0.00;60892.56;4861480;28;20041;-89
2022/01/26 01:40:11;;;;;;;19.60;9.13;;;;;;;-145.06;0.00;60892.56;4872047;28;20271;-90
2022/01/26 01:42:49;;;;;;;21.52;9.55;;;;;;;-145.06;0.00;60892.56;4855492;28;20045;-89
2022/01/26 01:45:30;;;;;;;22.37;10.27;;;;;;;-145.06;0.00;60892.56;4863286;28;20040;-89
2022/01/26 01:48:11;;;;;;;21.15;10.05;;;;;;;-145.06;0.00;60892.56;4855517;28;20491;-90
2022/01/26 01:50:51;;;;;;;23.70;11.77;;;;;;;-145.06;0.00;60892.56;4855753;28;20037;-89
2022/01/26 01:53:42;;;;;;;;;;;;;;;-145.06;0.00;60892.56;4855730;28;20472;-89
2022/01/26 01:56:25;;;;;;;22.58;10.80;;;;;;;-145.06;0.00;60892.56;4848076;28;19917;-90
2022/01/26 01:59:04;;;;;;;20.85;9.50;;;;;;;-145.06;0.00;60892.56;4851130;28;20037;-88
2022/01/26 02:01:43;;;;;;;30.13;13.67;;;;;;;-145.06;0.00;60892.56;4856290;28;20108;-89
2022/01/26 02:04:22;;;;;;;23.60;12.03;;;;;;;-145.06;0.00;60892.56;4855328;28;20116;-89
2022/01/26 02:07:01;;;;;;;20.27;10.40;;;;;;;-145.06;0.00;60892.56;4857397;28;20037;-88
2022/01/26 02:09:40;;;;;;;18.30;10.05;;;;;;;-145.06;0.00;60892.56;4854839;28;20061;-88
2022/01/26 02:12:23;;;;;;;18.88;9.52;;;;;;;-145.06;0.00;60892.56;4854790;28;20384;-88
2022/01/26 02:15:12;;;;;;;22.35;10.50;;;;;;;-145.06;0.00;60892.56;4871102;28;20041;-89
2022/01/26 02:55:40;;;;;;;19.63;9.98;;;;;;;-145.06;0.00;60892.56;4865082;28;20471;-88
2022/01/26 03:07:10;;;;;;;18.38;10.25;;;;;;;-145.06;0.00;60892.56;4865221;28;20113;-89
2022/01/26 03:10:00;;;;;;;21.73;10.50;;;;;;;-145.06;0.00;60892.56;4865466;28;20149;-88
2022/01/26 03:15:31;;;;;;;18.63;9.35;;;;;;;-145.06;0.00;60892.56;4874775;28;20037;-89
2022/01/26 03:21:01;;;;;;;18.60;9.40;;;;;;;-145.06;0.00;60892.56;4866113;28;20029;-88
2022/01/26 03:35:04;;;;;;;14.13;7.35;;;;;;;-145.06;0.00;60892.56;4865573;28;20284;-89
2022/01/26 03:37:55;;;;;;;17.33;8.43;;;;;;;-145.06;0.00;60892.56;4857604;28;20380;-89
2022/01/26 03:40:37;;;;;;;18.50;9.20;;;;;;;-145.06;0.00;60892.56;4857939;28;20057;-88
2022/01/26 03:43:15;;;;;;;20.25;9.18;;;;;;;-145.06;0.00;60892.56;4865499;28;20491;-87
2022/01/26 03:45:54;;;;;;;16.80;8.30;;;;;;;-145.06;0.00;60892.56;4863615;28;20120;-88
2022/01/26 03:48:34;;;;;;;19.23;8.77;;;;;;;-145.06;0.00;60892.56;4856787;28;20284;-89
2022/01/26 03:51:13;;;;;;;15.68;7.95;;;;;;;-145.06;0.00;60892.56;4855768;28;20148;-89
2022/01/26 03:53:52;;;;;;;14.27;7.15;;;;;;;-145.06;0.00;60892.56;4855659;28;20026;-88
2022/01/26 03:56:31;;;;;;;15.93;8.30;;;;;;;-145.06;0.00;60892.56;4868064;28;20021;-88
2022/01/26 03:59:11;;;;;;;14.60;7.45;;;;;;;-145.06;0.00;60892.56;4865337;28;20033;-88
2022/01/26 04:01:50;;;;;;;15.55;6.90;;;;;;;-145.06;0.00;60892.56;4856826;28;20377;-88
2022/01/26 04:04:34;;;;;;;14.20;6.83;;;;;;;-145.06;0.00;60892.56;4866317;28;20746;-89
2022/01/26 04:07:13;;;;;;;16.02;7.95;;;;;;;-145.06;0.00;60892.56;4865127;28;20561;-88
2022/01/26 04:09:53;;;;;;;15.40;7.32;;;;;;;-145.06;0.00;60892.56;4855243;28;20057;-88
2022/01/26 04:12:34;;;;;;;;;;;;;;;-145.06;0.00;60892.56;4850649;28;20053;-89
2022/01/26 04:15:24;;;;;;;13.20;6.65;;;;;;;187.52;0.00;60892.56;4867718;28;20556;-89
2022/01/26 04:18:08;;;;;;;16.10;7.57;;;;;;;-145.06;0.00;60892.56;4875880;28;20029;-87
2022/01/26 04:20:50;;;;;;;18.60;8.68;;;;;;;-145.06;0.00;60892.56;4867475;28;20025;-88
2022/01/26 04:26:19;;;;;;;17.08;8.43;;;;;;;-145.06;0.00;60892.56;4852208;28;20237;-87
2022/01/26 04:29:03;;;;;;;17.85;9.02;;;;;;;-145.06;0.00;60892.56;4844411;28;20112;-88
2022/01/26 04:31:42;;;;;;;17.55;8.63;;;;;;;-145.06;0.00;60892.56;4856661;28;20033;-89
2022/01/26 04:34:21;;;;;;;16.27;8.65;;;;;;;-145.06;0.00;60892.56;4860040;28;20811;-88
2022/01/26 04:37:23;;;;;;;16.17;8.30;;;;;;;-145.06;0.00;60892.56;4860613;28;20108;-88
2022/01/26 04:40:08;;;;;;;20.00;8.75;;;;;;;-145.06;0.00;60892.56;4851101;28;20376;-87
2022/01/26 04:45:26;;;;;;;20.30;8.57;;;;;;;-145.06;0.00;60892.56;4843411;28;20057;-88
2022/01/26 04:48:05;;;;;;;16.27;8.40;;;;;;;-145.06;0.00;60892.56;4860259;28;20033;-87
2022/01/26 04:50:44;;;;;;;20.30;9.40;;;;;;;-145.06;0.00;60892.56;4853360;28;20021;-88
2022/01/26 04:53:22;;;;;;;19.73;9.23;;;;;;;-145.06;0.00;60892.56;4855900;28;20273;-88
2022/01/26 04:56:02;;;;;;;18.02;8.95;;;;;;;-145.06;0.00;60892.56;4867595;28;20036;-88
2022/01/26 04:58:42;;;;;;;13.43;7.35;;;;;;;-145.06;0.00;60892.56;4862838;28;20483;-87
2022/01/26 05:01:20;;;;;;;13.07;6.53;;;;;;;-145.06;0.00;60892.56;4855015;28;20033;-87
2022/01/26 05:03:59;;;;;;;14.48;6.57;;;;;;;-145.06;0.00;60892.56;4861118;28;20368;-88
2022/01/26 05:06:38;;;;;;;14.03;6.67;;;;;;;-145.06;0.00;60892.56;4858099;28;20026;-88
2022/01/26 05:09:19;;;;;;;14.00;6.78;;;;;;;-145.06;0.00;60892.56;4859379;28;20272;-89
2022/01/26 05:12:00;;;;;;;15.63;6.78;;;;;;;-145.06;0.00;60892.56;4857225;28;20495;-89
2022/01/26 05:14:42;;;;;;;18.50;8.48;;;;;;;-145.06;0.00;60892.56;4865071;28;20024;-88
2022/01/26 05:17:22;;;;;;;23.33;10.77;;;;;;;-145.06;0.00;60892.56;4856287;28;20045;-88
2022/01/26 05:20:04;;;;;;;20.20;9.35;;;;;;;-145.06;0.00;60892.56;4839166;28;20708;-88
2022/01/26 05:22:44;;;;;;;20.17;10.13;;;;;;;-145.06;0.00;60892.56;4854623;28;20029;-88
2022/01/26 05:25:23;;;;;;;24.85;10.60;;;;;;;-145.06;0.00;60892.56;4870812;28;20029;-88
2022/01/26 05:28:02;;;;;;;28.03;11.73;;;;;;;-145.06;0.00;60892.56;4873874;28;20029;-88
2022/01/26 05:30:41;;;;;;;30.47;13.43;;;;;;;-145.06;0.00;60892.56;4856854;28;20689;-88
2022/01/26 05:33:23;;;;;;;27.35;12.35;;;;;;;-145.06;0.00;60892.56;4864631;28;20029;-89
2022/01/26 05:36:03;;;;;;;28.08;12.77;;;;;;;-145.06;0.00;60892.56;4859971;28;20484;-88
2022/01/26 05:38:42;;;;;;;30.38;14.02;;;;;;;-145.06;0.00;60892.56;4856471;28;20120;-89
2022/01/26 05:41:21;;;;;;;27.47;12.30;;;;;;;-145.06;0.00;60892.56;4856235;28;20037;-87
2022/01/26 05:44:00;;;;;;;31.03;14.00;;;;;;;-145.06;0.00;60892.56;4866122;28;20264;-89
2022/01/26 05:46:44;;;;;;;28.55;13.15;;;;;;;-145.06;0.00;60892.56;4855073;28;20033;-87
2022/01/26 05:49:25;;;;;;;35.15;15.00;;;;;;;-145.06;0.00;60892.56;4862143;28;20037;-89
2022/01/26 05:52:04;;;;;;;31.27;14.85;;;;;;;-145.06;0.00;60892.56;4853971;28;20029;-88
2022/01/26 05:54:43;;;;;;;38.47;17.00;;;;;;;5.49;0.00;60892.56;4865633;28;20368;-88
2022/01/26 05:57:21;;;;;;;30.65;14.05;;;;;;;-145.06;0.00;60892.56;4854465;28;20272;-88
2022/01/26 06:00:00;;;;;;;30.60;14.10;;;;;;;187.52;0.00;60892.56;4853786;28;20029;-89
2022/01/26 06:02:40;;;;;;;30.17;13.90;;;;;;;3.54;0.00;60892.56;4866762;28;20068;-87
2022/01/26 06:05:19;;;;;;;27.98;13.07;;;;;;;10.68;0.00;60892.56;4854037;28;20303;-87
2022/01/26 06:07:58;;;;;;;23.00;11.68;;;;;;;10.68;0.00;60892.56;4853649;28;20443;-88
2022/01/26 06:10:37;;;;;;;31.45;13.68;;;;;;;-145.06;0.00;60892.56;4854069;28;20029;-89
2022/01/26 06:13:16;;;;;;;28.00;12.87;;;;;;;10.68;0.00;60892.56;4866787;28;20037;-88
2022/01/26 06:15:56;;;;;;;29.08;13.48;;;;;;;-145.06;0.00;60892.56;4854593;28;21072;-90
2022/01/26 06:18:35;;;;;;;32.08;14.23;;;;;;;21.08;0.00;60892.56;4863059;28;20037;-88
2022/01/26 06:21:14;;;;;;;32.78;14.73;;;;;;;21.08;0.00;60892.56;4850454;28;20808;-89
2022/01/26 06:23:53;;;;;;;32.03;14.20;;;;;;;-145.06;0.00;60892.56;4853271;28;20041;-89
2022/01/26 06:26:32;;;;;;;31.80;14.37;;;;;;;5.49;0.00;60892.56;4852106;28;20593;-89
2022/01/26 06:29:11;;;;;;;36.73;14.87;;;;;;;-145.06;0.00;60892.56;4852237;28;20260;-89
2022/01/26 06:31:50;;;;;;;32.30;15.13;;;;;;;-145.06;0.00;60892.56;4852059;28;20025;-88
2022/01/26 06:34:29;;;;;;;34.63;15.15;;;;;;;-145.06;0.00;60892.56;4855174;28;20069;-89
2022/01/26 06:37:08;;;;;;;36.47;17.03;;;;;;;-145.06;0.00;60892.56;4855450;28;20480;-87
2022/01/26 06:39:47;;;;;;;36.50;15.98;;;;;;;5.49;0.00;60892.56;4857933;28;20026;-89
2022/01/26 06:42:30;;;;;;;35.90;15.40;;;;;;;-145.06;0.00;60892.56;4874946;28;20037;-88
2022/01/26 06:45:16;;;;;;;38.25;16.13;;;;;;;-145.06;0.00;60892.56;4867071;28;20034;-89
2022/01/26 06:48:26;;;;;;;43.45;17.92;;;;;;;-145.06;0.00;60892.56;4851198;28;20041;-87
2022/01/26 06:51:00;;;;;;;42.45;18.05;;;;;;;-145.06;0.00;60892.56;4851876;28;20364;-88
2022/01/26 06:53:40;;;;;;;46.38;19.40;;;;;;;-145.06;0.00;60892.56;4854065;28;20026;-88
2022/01/26 06:56:18;;;;;;;50.28;21.27;;;;;;;2.86;0.00;60892.56;4853193;28;20037;-89
2022/01/26 06:58:58;;;;;;;44.38;18.30;;;;;;;-145.06;0.00;60892.56;4847174;28;20503;-87
2022/01/26 07:01:37;;;;;;;40.50;18.60;;;;;;;-145.06;0.00;60892.56;4845430;28;20049;-88
2022/01/26 07:04:16;;;;;;;41.17;16.98;;;;;;;-145.06;0.00;60892.56;4849184;28;20033;-88
2022/01/26 07:06:55;;;;;;;40.67;17.85;;;;;;;2.79;0.00;60892.56;4847356;28;20053;-88
2022/01/26 07:09:34;;;;;;;39.53;15.60;;;;;;;-145.06;0.00;60892.56;4850802;28;20033;-88
2022/01/26 07:12:13;;;;;;;36.47;14.88;;;;;;;-145.06;0.00;60892.56;4846258;28;20045;-88
2022/01/26 07:23:46;;;;;;;31.88;13.43;;;;;;;2.89;0.00;60892.56;4850332;28;20029;-88
2022/01/26 07:26:30;;;;;;;32.40;15.20;;;;;;;2.88;0.00;60892.56;4856422;28;20478;-89
2022/01/26 07:29:15;;;;;;;38.95;16.30;;;;;;;-145.06;0.00;60892.56;4852760;28;20264;-88
2022/01/26 07:31:53;;;;;;;33.92;14.38;;;;;;;-145.06;0.00;60892.56;4851124;28;20037;-88
2022/01/26 07:34:32;;;;;;;38.22;15.43;;;;;;;5.49;0.00;60892.56;4852014;28;20115;-89
2022/01/26 07:37:13;;;;;;;39.90;15.27;;;;;;;-145.06;0.00;60892.56;4866731;28;20479;-88
2022/01/26 07:40:05;;;;;;;39.30;16.80;;;;;;;-145.06;0.00;60892.56;4851255;28;20073;-89
2022/01/26 07:42:44;;;;;;;37.70;15.65;;;;;;;-145.06;0.00;60892.56;4853026;28;20025;-87
2022/01/26 07:45:23;;;;;;;39.15;15.48;;;;;;;-145.06;0.00;60892.56;4852490;28;20033;-89
2022/01/26 07:48:03;;;;;;;30.50;13.10;;;;;;;-145.06;0.00;60892.56;4853704;28;20045;-89
2022/01/26 07:50:42;;;;;;;;;;;;;;;-145.06;0.00;60892.56;4850563;28;20029;-89
2022/01/26 07:53:21;;;;;;;27.48;11.43;;;;;;;187.52;0.00;60892.56;4851064;28;19999;-88
2022/01/26 07:56:00;;;;;;;30.58;11.82;;;;;;;-145.06;0.00;60892.56;4852169;28;20045;-88
2022/01/26 07:58:42;;;;;;;29.08;11.65;;;;;;;-145.06;0.00;60892.56;4851757;28;20037;-88
2022/01/26 08:01:23;;;;;;;30.25;12.02;;;;;;;-145.06;0.00;60892.56;4838823;28;20029;-87
2022/01/26 08:04:03;;;;;;;39.97;14.32;;;;;;;-145.06;0.00;60892.56;4852722;28;20105;-88
2022/01/26 08:06:44;;;;;;;;;;;;;;;-145.06;0.00;60892.56;4851687;28;20037;-88
2022/01/26 08:09:23;;;;;;;39.63;16.13;;;;;;;-145.06;0.00;60892.56;4858755;28;19921;-89
2022/01/26 08:12:02;;;;;;;34.27;14.87;;;;;;;-145.06;0.00;60892.56;4851315;28;20033;-89
2022/01/26 08:14:43;;;;;;;36.05;14.32;;;;;;;-145.06;0.00;60892.56;4849413;28;20630;-88
2022/01/26 08:17:22;;;;;;;37.92;14.45;;;;;;;-145.06;0.00;60892.56;4878750;28;20033;-89
2022/01/26 08:20:04;;;;;;;35.67;14.03;;;;;;;2.96;0.00;60892.56;4848234;28;20680;-89
2022/01/26 08:22:43;;;;;;;41.80;16.08;;;;;;;-145.06;0.00;60892.56;4849227;28;20284;-89
2022/01/26 08:25:22;;;;;;;41.28;16.58;;;;;;;-145.06;0.00;60892.56;4851335;28;20033;-88
2022/01/26 08:28:19;;;;;;;42.90;17.92;;;;;;;4.19;0.00;60892.56;4851217;28;20120;-88
2022/01/26 08:30:58;;;;;;;46.22;18.42;;;;;;;-145.06;0.00;60892.56;4851254;28;20045;-88
2022/01/26 08:33:37;;;;;;;42.70;16.38;;;;;;;10.68;0.00;60892.56;4849225;28;20041;-88
2022/01/26 08:36:16;;;;;;;41.30;15.33;;;;;;;10.68;0.00;60892.56;4852837;28;20045;-89
2022/01/26 08:38:55;;;;;;;47.13;16.65;;;;;;;-145.06;0.00;60892.56;4849152;28;20049;-89
2022/01/26 08:41:34;;;;;;;48.20;18.17;;;;;;;-145.06;0.00;60892.56;4852469;28;20045;-88
2022/01/26 08:44:14;;;;;;;43.28;16.15;;;;;;;2.92;0.00;60892.56;4856236;28;20664;-89
2022/01/26 08:46:54;;;;;;;49.00;17.90;;;;;;;-145.06;0.00;60892.56;4853501;28;20053;-89
2022/01/26 08:49:33;;;;;;;49.33;18.75;;;;;;;-145.06;0.00;60892.56;4867770;28;20283;-90
2022/01/26 08:52:13;;;;;;;48.38;16.58;;;;;;;-145.06;0.00;60892.56;4864165;28;20045;-90
2022/01/26 08:54:52;;;;;;;39.80;15.57;;;;;;;-145.06;0.00;60892.56;4854089;28;20037;-88
2022/01/26 08:57:30;;;;;;;41.77;15.43;;;;;;;-145.06;0.00;60892.56;4854281;28;20033;-90
2022/01/26 09:00:11;;;;;;;38.13;14.50;;;;;;;-145.06;0.00;60892.56;4854930;28;20284;-89
2022/01/26 09:02:51;;;;;;;44.58;15.90;;;;;;;10.68;0.00;60892.56;4863063;28;20029;-89
2022/01/26 09:05:30;;;;;;;39.60;15.35;;;;;;;10.68;0.00;60892.56;4867071;28;20037;-88
2022/01/26 09:08:09;;;;;;;36.30;14.50;;;;;;;10.68;0.00;60892.56;4854512;28;20041;-88
2022/01/26 09:10:56;;;;;;;35.22;13.57;;;;;;;-145.06;0.00;60892.56;4852114;28;20029;-88
2022/01/26 09:13:36;;;;;;;38.40;14.52;;;;;;;-145.06;0.00;60892.56;4850042;28;20038;-90
2022/01/26 09:16:18;;;;;;;34.08;13.38;;;;;;;-145.06;0.00;60892.56;4846192;28;20033;-89
2022/01/26 09:19:03;;;;;;;33.42;13.45;;;;;;;-145.06;0.00;60892.56;4851412;28;20033;-89
2022/01/26 09:21:42;;;;;;;35.58;14.20;;;;;;;-145.06;0.00;60892.56;4849766;28;20025;-89
2022/01/26 09:24:21;;;;;;;41.10;16.03;;;;;;;-145.06;0.00;60892.56;4843681;28;20033;-89
2022/01/26 09:27:01;;;;;;;36.07;14.83;;;;;;;-145.06;0.00;60892.56;4850182;28;20041;-90
2022/01/26 09:29:41;;;;;;;;;;;;;;;-145.06;0.00;60892.56;4851319;28;20776;-88
2022/01/26 09:32:22;;;;;;;30.92;12.15;;;;;;;-145.06;0.00;60892.56;4847702;28;19920;-90
2022/01/26 09:35:08;;;;;;;42.50;16.02;;;;;;;-145.06;0.00;60892.56;4852471;28;20128;-90
2022/01/26 09:37:46;;;;;;;45.35;16.73;;;;;;;-145.06;0.00;60892.56;4851217;28;20033;-90
2022/01/26 09:40:25;;;;;;;40.17;14.77;;;;;;;-145.06;0.00;60892.56;4849720;28;20758;-88
2022/01/26 09:43:05;;;;;;;51.27;19.60;;;;;;;-145.06;0.00;60892.56;4855296;28;20264;-89
2022/01/26 09:45:45;;;;;;;46.67;18.02;;;;;;;-145.06;0.00;60892.56;4851394;28;20017;-88
2022/01/26 09:48:24;;;;;;;49.58;18.80;;;;;;;-145.06;0.00;60892.56;4864173;28;20037;-90
2022/01/26 09:51:03;;;;;;;48.23;18.50;;;;;;;187.52;0.00;60892.56;4850812;28;20033;-90
2022/01/26 09:53:42;;;;;;;41.80;16.50;;;;;;;-145.06;0.00;60892.56;4853741;28;20764;-90
2022/01/26 09:56:21;;;;;;;49.60;19.50;;;;;;;-145.06;0.00;60892.56;4849156;28;20895;-88
2022/01/26 09:59:00;;;;;;;42.70;16.77;;;;;;;-145.06;0.00;60892.56;4853119;28;20045;-89
2022/01/26 10:01:46;;;;;;;45.10;16.07;;;;;;;-145.06;0.00;60892.56;4851079;28;20033;-90
2022/01/26 10:04:35;;;;;;;44.55;17.48;;;;;;;-145.06;0.00;60892.56;4854887;28;20026;-89
2022/01/26 10:10:08;;;;;;;40.78;16.67;;;;;;;187.52;0.00;60892.56;4863671;28;20483;-89
2022/01/26 10:18:42;;;;;;;29.33;12.75;;;;;;;-145.06;0.00;60892.56;4855023;28;20033;-88
2022/01/26 10:21:21;;;;;;;27.90;11.48;;;;;;;187.52;0.00;60892.56;4851272;28;20112;-90
2022/01/26 10:24:10;;;;;;;27.17;11.00;;;;;;;-145.06;0.00;60892.56;4879937;28;20784;-90
2022/01/26 10:26:56;;;;;;;26.98;11.60;;;;;;;-145.06;0.00;60892.56;4851528;28;20065;-89
2022/01/26 10:29:36;;;;;;;28.00;11.07;;;;;;;-145.06;0.00;60892.56;4853931;28;20036;-88
2022/01/26 10:32:17;;;;;;;26.10;10.77;;;;;;;-145.06;0.00;60892.56;4863059;28;20464;-89
2022/01/26 10:35:01;;;;;;;28.75;11.95;;;;;;;-145.06;0.00;60892.56;4849144;28;20037;-89
2022/01/26 10:37:49;;;;;;;25.40;11.07;;;;;;;-145.06;0.00;60892.56;4851358;28;20419;-90
2022/01/26 10:40:29;;;;;;;30.77;12.35;;;;;;;-145.06;0.00;60892.56;4853005;28;20562;-90
2022/01/26 10:43:12;;;;;;;28.40;12.70;;;;;;;-145.06;0.00;60892.56;4853088;28;20034;-90
2022/01/26 10:45:56;;;;;;;26.67;11.77;;;;;;;-145.06;0.00;60892.56;4875444;28;20025;-90
2022/01/26 10:48:42;;;;;;;26.98;11.32;;;;;;;-145.06;0.00;60892.56;4846873;28;20144;-89
2022/01/26 10:51:38;;;;;;;24.60;10.50;;;;;;;-145.06;0.00;60892.56;4851791;28;20041;-90
2022/01/26 10:57:14;;;;;;;20.35;9.38;;;;;;;-145.06;0.00;60892.56;4856393;28;20033;-89
2022/01/26 10:59:53;;;;;;;21.42;9.40;;;;;;;-145.06;0.00;60892.56;4852433;28;20452;-88
2022/01/26 11:02:33;;;;;;;20.45;9.05;;;;;;;-145.06;0.00;60892.56;4856677;28;20042;-89
2022/01/26 11:05:12;;;;;;;19.00;8.63;;;;;;;-145.06;0.00;60892.56;4850848;28;20539;-88
2022/01/26 11:07:52;;;;;;;21.30;9.63;;;;;;;-145.06;0.00;60892.56;4851860;28;20030;-90
2022/01/26 11:10:37;;;;;;;18.65;8.40;;;;;;;-145.06;0.00;60892.56;4854051;28;20053;-89
2022/01/26 11:13:49;;;;;;;20.58;8.27;;;;;;;-145.06;0.00;60892.56;4854758;28;20045;-89
2022/01/26 11:16:29;;;;;;;14.25;7.78;;;;;;;-145.06;0.00;60892.56;4854576;28;20049;-89
2022/01/26 11:19:14;;;;;;;23.45;10.05;;;;;;;-145.06;0.00;60892.56;4850135;28;20041;-89
2022/01/26 11:21:53;;;;;;;25.35;11.20;;;;;;;-145.06;0.00;60892.56;4850190;28;20049;-88
2022/01/26 11:24:42;;;;;;;22.60;10.23;;;;;;;-145.06;0.00;60892.56;4849026;28;20029;-89
2022/01/26 11:27:32;;;;;;;21.80;9.43;;;;;;;-145.06;0.00;60892.56;4865392;28;20037;-90
2022/01/26 11:30:29;;;;;;;18.30;8.45;;;;;;;-145.06;0.00;60892.56;4858267;28;20276;-88
2022/01/26 11:33:14;;;;;;;17.75;8.63;;;;;;;-145.06;0.00;60892.56;4853446;28;20030;-90
2022/01/26 11:35:56;;;;;;;22.65;9.95;;;;;;;-145.06;0.00;60892.56;4849648;28;20116;-89
2022/01/26 11:42:12;;;;;;;22.10;9.48;;;;;;;-145.06;0.00;60892.56;4854818;28;20030;-88
2022/01/26 11:45:17;;;;;;;18.33;9.63;;;;;;;-145.06;0.00;60892.56;4812070;28;20579;-89
2022/01/26 11:48:10;;;;;;;19.98;9.40;;;;;;;-145.06;0.00;60892.56;4799890;28;20050;-90
2022/01/26 11:50:59;;;;;;;20.35;9.50;;;;;;;-145.06;0.00;60892.56;4845176;28;20104;-89
2022/01/26 11:53:38;;;;;;;18.83;8.88;;;;;;;-145.06;0.00;60892.56;4853967;28;20052;-88
2022/01/26 11:56:21;;;;;;;18.15;8.40;;;;;;;-145.06;0.00;60892.56;4850640;28;20064;-89
2022/01/26 11:59:00;;;;;;;18.77;9.70;;;;;;;-145.06;0.00;60892.56;4855618;28;20487;-89
2022/01/26 12:01:42;;;;;;;24.10;10.93;;;;;;;-145.06;0.00;60892.56;4855268;28;20033;-89
2022/01/26 12:04:23;;;;;;;21.70;10.77;;;;;;;-145.06;0.00;60892.56;4852278;28;20025;-88
2022/01/26 12:07:21;;;;;;;20.73;9.60;;;;;;;-145.06;0.00;60892.56;4850649;28;20116;-90
2022/01/26 12:10:03;;;;;;;17.92;9.10;;;;;;;-145.06;0.00;60892.56;4851486;28;20041;-90
2022/01/26 12:12:42;;;;;;;32.47;14.00;;;;;;;10.68;0.00;60892.56;4851617;28;20036;-89
2022/01/26 12:15:27;;;;;;;24.20;11.73;;;;;;;-145.06;0.00;60892.56;4851562;28;20199;-88
2022/01/26 12:36:19;;;;;;;22.02;10.95;;;;;;;-145.06;0.00;60892.56;4840849;28;20045;-88
2022/01/26 12:39:01;;;;;;;27.20;12.35;;;;;;;-145.06;0.00;60892.56;4850359;28;20125;-89
2022/01/26 12:41:48;;;;;;;23.67;11.18;;;;;;;-145.06;0.00;60892.56;4860300;28;20033;-88
2022/01/26 12:44:27;;;;;;;24.60;11.77;;;;;;;-145.06;0.00;60892.56;4855172;28;20029;-89
2022/01/26 12:47:07;;;;;;;25.98;12.25;;;;;;;-145.06;0.00;60892.56;4847934;28;20045;-89
2022/01/26 12:49:46;;;;;;;23.77;11.60;;;;;;;10.68;0.00;60892.56;4851254;28;20646;-89
2022/01/26 12:52:28;;;;;;;29.23;12.63;;;;;;;3.86;0.00;60892.56;4854130;28;20044;-88
2022/01/26 12:55:18;;;;;;;23.17;10.32;;;;;;;5.49;0.00;60892.56;4850817;28;20315;-89
2022/01/26 12:57:57;;;;;;;28.48;12.18;;;;;;;-145.06;0.00;60892.56;4850691;28;20025;-88
2022/01/26 13:00:39;;;;;;;26.80;11.40;;;;;;;4.19;0.00;60892.56;4849746;28;20041;-89
2022/01/26 13:03:19;;;;;;;25.88;12.10;;;;;;;-145.06;0.00;60892.56;4879457;28;20041;-88
2022/01/26 13:06:26;;;;;;;24.50;11.60;;;;;;;-145.06;0.00;60892.56;4851934;28;20033;-89
2022/01/26 13:09:19;;;;;;;26.23;11.82;;;;;;;-145.06;0.00;60892.56;4852691;28;20037;-88
2022/01/26 13:12:00;;;;;;;35.33;15.75;;;;;;;-145.06;0.00;60892.56;4851114;28;20041;-89
2022/01/26 13:29:08;;;;;;;37.03;16.33;;;;;;;187.52;0.00;60892.56;4849310;28;20101;-89
2022/01/26 13:35:04;;;;;;;28.20;13.00;;;;;;;5.49;0.00;60892.56;4850660;28;20033;-89
2022/01/26 13:40:50;;;;;;;25.93;11.73;;;;;;;-145.06;0.00;60892.56;4861705;28;20021;-90
2022/01/26 13:59:58;;;;;;;28.08;11.65;;;;;;;-145.06;0.00;60892.56;4848850;28;20490;-89
2022/01/26 14:02:38;;;;;;;31.67;13.48;;;;;;;-145.06;0.00;60892.56;4850849;28;20064;-90
2022/01/26 14:05:17;;;;;;;29.83;13.85;;;;;;;-145.06;0.00;60892.56;4848765;28;20414;-90
2022/01/26 14:07:57;;;;;;;27.98;12.52;;;;;;;-145.06;0.00;60892.56;4848585;28;20041;-90
2022/01/26 14:10:36;;;;;;;31.70;13.77;;;;;;;-145.06;0.00;60892.56;4879441;28;20037;-89
2022/01/26 14:13:21;;;;;;;32.63;13.68;;;;;;;-145.06;0.00;60892.56;4851676;28;20510;-90
2022/01/26 14:16:00;;;;;;;33.28;14.48;;;;;;;3.86;0.00;60892.56;4850037;28;20045;-89
2022/01/26 14:27:10;;;;;;;37.55;16.65;;;;;;;-145.06;0.00;60892.56;4854034;28;20033;-90
2022/01/26 14:30:15;;;;;;;34.38;15.20;;;;;;;21.08;0.00;60892.56;4852328;28;20120;-89
2022/01/26 14:35:55;;;;;;;;;;;;;;;-145.06;0.00;60892.56;4854649;28;20487;-89
2022/01/26 15:00:05;;;;;;;39.03;16.13;;;;;;;-145.06;0.00;60892.56;4855767;28;20063;-89
2022/01/26 15:35:01;;;;;;;34.00;14.27;;;;;;;-145.06;0.00;60892.56;4852705;28;20037;-90
2022/01/26 15:40:28;;;;;;;26.30;12.98;;;;;;;-145.06;0.00;60892.56;4850914;28;20479;-90
2022/01/26 15:43:34;;;;;;;28.23;13.07;;;;;;;-145.06;0.00;60892.56;4853824;28;20029;-90
2022/01/26 15:52:13;;;;;;;29.30;12.25;;;;;;;-145.06;0.00;60892.56;4852725;28;20041;-88
2022/01/26 16:21:18;;;;;;;20.65;9.85;;;;;;;-145.06;0.00;60892.56;4848832;28;20037;-89
2022/01/26 18:33:13;;;;;;;20.80;9.43;;;;;;;-145.06;0.00;60892.56;4842394;28;20045;-88
2022/01/26 18:50:33;;;;;;;25.30;11.55;;;;;;;-145.06;0.00;60892.56;4852246;28;20057;-90
2022/01/26 18:53:13;;;;;;;26.15;11.15;;;;;;;-145.06;0.00;60892.56;4849694;28;20041;-88
2022/01/26 18:55:52;;;;;;;27.58;12.85;;;;;;;-145.06;0.00;60892.56;4850735;28;20046;-89
2022/01/26 18:58:31;;;;;;;21.40;10.73;;;;;;;-145.06;0.00;60892.56;4847826;28;20037;-89
2022/01/26 19:01:10;;;;;;;19.53;9.13;;;;;;;-145.06;0.00;60892.56;4848110;28;20272;-87
2022/01/26 19:03:49;;;;;;;23.77;10.63;;;;;;;-145.06;0.00;60892.56;4849920;28;20037;-89
2022/01/26 19:06:28;;;;;;;19.77;9.67;;;;;;;-145.06;0.00;60892.56;4847652;28;20554;-89
2022/01/26 19:09:07;;;;;;;20.20;9.35;;;;;;;-145.06;0.00;60892.56;4851324;28;20264;-89
2022/01/26 19:11:47;;;;;;;26.27;11.35;;;;;;;-145.06;0.00;60892.56;4845700;28;20073;-88
2022/01/26 19:14:32;;;;;;;24.75;11.65;;;;;;;-145.06;0.00;60892.56;4854427;28;20041;-89
2022/01/26 19:17:17;;;;;;;25.88;11.48;;;;;;;-145.06;0.00;60892.56;4849151;28;20045;-89
2022/01/26 19:23:16;;;;;;;23.50;10.57;;;;;;;-145.06;0.00;60892.56;4852041;28;20041;-90
2022/01/26 19:26:04;;;;;;;27.25;11.70;;;;;;;-145.06;0.00;60892.56;4852281;28;20026;-88
2022/01/26 19:28:47;;;;;;;24.38;11.10;;;;;;;-145.06;0.00;60892.56;4850708;28;20033;-89
2022/01/26 19:41:25;;;;;;;27.83;11.68;;;;;;;-145.06;0.00;60892.56;4852168;28;20057;-89